Time;durP1;ratioP1;P1;durP2;ratioP2;P2;SDS_P1;SDS_P2;PMS_P1;PMS_P2;Temp;Humidity;BMP_temperature;BMP_pressure;BME280_temperature;BME280_humidity;BME280_pressure;Samples;Min_cycle;Max_cycle;Signal;HPM_P1;HPM_P2
2022/09/23 00:01:24;;;;;;;0.40;0.40;;;;;;;7.34;75.80;99645.69;4439224;32;35810;-78
2022/09/23 00:03:52;;;;;;;0.55;0.55;;;;;;;7.81;74.89;99641.66;4439273;32;35129;-83
2022/09/23 00:06:22;;;;;;;0.70;0.70;;;;;;;8.54;70.52;99635.03;4439220;32;33492;-78
2022/09/23 00:08:50;;;;;;;1.10;0.88;;;;;;;8.52;69.65;99635.06;4438999;32;33797;-78
2022/09/23 00:11:21;;;;;;;2.08;1.73;;;;;;;8.44;69.22;99636.75;4439064;32;34954;-78
2022/09/23 00:13:51;;;;;;;0.45;0.45;;;;;;;7.64;72.64;99636.41;4439212;32;34517;-78
2022/09/23 00:16:22;;;;;;;0.40;0.40;;;;;;;8.26;69.86;99639.25;4438041;32;32562;-78
2022/09/23 00:18:50;;;;;;;2.05;1.00;;;;;;;7.73;71.41;99632.97;4437906;32;34502;-78
2022/09/23 00:21:19;;;;;;;0.57;0.57;;;;;;;7.46;72.69;99633.66;4439072;32;35973;-78
2022/09/23 00:23:48;;;;;;;0.40;0.40;;;;;;;7.09;74.50;99628.22;4438919;32;34404;-78
2022/09/23 00:26:17;;;;;;;0.40;0.40;;;;;;;7.38;72.87;99626.72;4439376;32;34270;-78
2022/09/23 00:28:46;;;;;;;0.60;0.60;;;;;;;7.81;70.89;99626.09;4438919;32;33968;-78
2022/09/23 00:31:16;;;;;;;0.50;0.50;;;;;;;7.12;73.00;99623.06;4439066;32;35589;-78
2022/09/23 00:33:44;;;;;;;0.60;0.60;;;;;;;7.40;73.53;99631.91;4438906;32;33648;-78
2022/09/23 00:36:14;;;;;;;0.60;0.60;;;;;;;7.59;72.45;99619.94;4438799;32;33362;-78
2022/09/23 00:38:43;;;;;;;0.60;0.60;;;;;;;7.72;71.51;99611.38;4438845;32;34737;-78
2022/09/23 00:41:17;;;;;;;0.90;0.90;;;;;;;7.69;71.53;99608.75;4425578;32;33625;-79
2022/09/23 00:43:49;;;;;;;0.50;0.50;;;;;;;7.37;72.18;99617.19;4438009;32;34579;-78
2022/09/23 00:46:27;;;;;;;0.60;0.60;;;;;;;7.19;74.72;99614.50;4438640;32;33620;-78
2022/09/23 00:49:11;;;;;;;0.80;0.80;;;;;;;6.34;77.26;99605.13;4438783;32;33974;-78
2022/09/23 00:51:43;;;;;;;0.73;0.73;;;;;;;6.17;77.62;99600.59;4437517;32;35180;-78
2022/09/23 00:54:11;;;;;;;0.82;0.82;;;;;;;7.21;74.53;99605.00;4437237;32;35348;-79
2022/09/23 00:56:39;;;;;;;3.33;3.12;;;;;;;7.34;73.13;99603.34;4437578;32;33386;-79
2022/09/23 00:59:08;;;;;;;0.70;0.70;;;;;;;7.01;76.02;99604.87;4438606;32;33876;-79
2022/09/23 01:01:37;;;;;;;0.52;0.52;;;;;;;7.44;73.33;99599.13;4437192;32;34947;-78
2022/09/23 01:04:06;;;;;;;0.50;0.50;;;;;;;7.36;73.49;99606.84;4436769;32;34490;-83
2022/09/23 01:06:34;;;;;;;0.60;0.60;;;;;;;7.27;74.69;99601.59;4436733;32;34366;-78
2022/09/23 01:09:02;;;;;;;1.17;0.75;;;;;;;7.35;73.99;99605.97;4438508;32;34437;-78
2022/09/23 01:11:36;;;;;;;0.80;0.80;;;;;;;7.13;74.65;99611.84;4438292;32;36167;-78
2022/09/23 01:14:40;;;;;;;0.60;0.60;;;;;;;7.21;75.04;99607.59;4437243;32;34455;-78
2022/09/23 01:17:14;;;;;;;0.60;0.60;;;;;;;7.30;73.76;99605.06;4438353;32;33470;-79
2022/09/23 01:20:13;;;;;;;0.50;0.50;;;;;;;7.05;75.18;99609.22;4437188;32;33916;-79
2022/09/23 01:23:11;;;;;;;1.02;1.02;;;;;;;7.35;73.57;99613.72;4437120;32;34907;-78
2022/09/23 01:26:03;;;;;;;0.52;0.50;;;;;;;6.98;75.49;99603.09;4436445;32;34473;-78
2022/09/23 01:29:05;;;;;;;0.60;0.60;;;;;;;7.44;72.69;99609.47;4424530;32;33783;-78
2022/09/23 01:31:43;;;;;;;0.50;0.50;;;;;;;7.30;73.17;99602.47;4438138;32;33790;-78
2022/09/23 01:34:49;;;;;;;1.40;1.30;;;;;;;7.29;73.16;99608.53;4424053;32;35592;-78
2022/09/23 01:37:27;;;;;;;0.50;0.50;;;;;;;7.21;73.61;99605.88;4437918;32;34342;-78
2022/09/23 01:40:01;;;;;;;0.60;0.60;;;;;;;7.36;73.07;99610.31;4436980;32;33813;-78
2022/09/23 01:42:38;;;;;;;1.62;1.23;;;;;;;7.28;72.81;99611.09;4437903;32;34302;-78
2022/09/23 01:45:11;;;;;;;0.60;0.60;;;;;;;6.73;74.51;99599.44;4423884;32;35058;-79
2022/09/23 01:47:43;;;;;;;0.60;0.60;;;;;;;6.77;74.17;99600.34;4436563;32;34421;-78
2022/09/23 01:53:10;;;;;;;0.50;0.50;;;;;;;6.49;76.37;99605.25;4436274;32;34007;-79
2022/09/23 01:55:46;;;;;;;0.50;0.50;;;;;;;7.08;74.37;99610.97;4438329;32;35924;-79
2022/09/23 01:58:23;;;;;;;0.60;0.60;;;;;;;6.58;76.41;99607.06;4438900;32;34124;-78
2022/09/23 02:00:59;;;;;;;2.37;0.80;;;;;;;7.14;73.64;99600.66;4440284;32;34409;-82
2022/09/23 02:03:34;;;;;;;0.93;0.93;;;;;;;6.84;75.87;99602.13;4439023;32;33853;-78
2022/09/23 02:06:11;;;;;;;0.82;0.80;;;;;;;6.97;74.42;99606.56;4438807;32;35198;-78
2022/09/23 02:09:05;;;;;;;0.68;0.68;;;;;;;7.01;74.33;99604.87;4438887;32;34519;-78
2022/09/23 02:11:35;;;;;;;0.60;0.60;;;;;;;6.91;74.01;99603.06;4440016;32;34193;-78
2022/09/23 02:14:22;;;;;;;0.80;0.80;;;;;;;6.32;76.33;99601.62;4438730;32;33175;-78
2022/09/23 02:16:51;;;;;;;0.65;0.65;;;;;;;6.60;76.69;99593.31;4438828;32;35992;-79
2022/09/23 02:19:26;;;;;;;0.73;0.73;;;;;;;6.66;76.41;99596.81;4438843;32;34401;-78
2022/09/23 02:22:22;;;;;;;2.90;1.42;;;;;;;6.89;74.41;99595.28;4438817;32;34231;-78
2022/09/23 02:24:50;;;;;;;0.70;0.70;;;;;;;6.88;75.05;99595.25;4437363;32;34537;-78
2022/09/23 02:27:33;;;;;;;0.50;0.50;;;;;;;6.05;76.75;99598.78;4439875;32;35014;-78
2022/09/23 02:30:08;;;;;;;0.50;0.50;;;;;;;6.04;78.67;99601.34;4439572;32;34526;-78
2022/09/23 02:33:03;;;;;;;0.50;0.50;;;;;;;5.87;78.44;99598.50;4440116;32;33749;-78
2022/09/23 02:35:47;;;;;;;1.15;1.10;;;;;;;5.72;80.78;99599.19;4438672;32;33842;-82
2022/09/23 02:38:38;;;;;;;0.50;0.50;;;;;;;6.14;78.77;99600.59;4438767;32;35030;-78
2022/09/23 02:41:27;;;;;;;0.60;0.60;;;;;;;6.73;76.90;99602.03;4438698;32;34466;-78
2022/09/23 02:44:10;;;;;;;0.52;0.52;;;;;;;6.26;79.49;99598.16;4439693;32;33442;-78
2022/09/23 02:46:38;;;;;;;0.50;0.50;;;;;;;7.07;75.64;99593.69;4426154;32;34850;-79
2022/09/23 02:49:22;;;;;;;0.50;0.50;;;;;;;7.25;74.24;99598.13;4438432;32;35151;-82
2022/09/23 02:51:50;;;;;;;0.50;0.50;;;;;;;7.48;72.01;99598.28;4438388;32;34511;-78
2022/09/23 02:54:21;;;;;;;0.50;0.50;;;;;;;7.26;72.57;99612.81;4438638;32;33455;-78
2022/09/23 02:56:49;;;;;;;0.50;0.50;;;;;;;7.25;71.52;99600.72;4438502;32;34057;-78
2022/09/23 02:59:18;;;;;;;0.60;0.60;;;;;;;6.96;72.84;99603.97;4439466;32;36050;-78
2022/09/23 03:02:06;;;;;;;0.50;0.50;;;;;;;6.53;73.20;99603.56;4439622;32;35072;-78
2022/09/23 03:04:46;;;;;;;0.50;0.50;;;;;;;6.82;73.44;99603.84;4439696;32;32943;-78
2022/09/23 03:07:18;;;;;;;0.62;0.62;;;;;;;6.35;76.27;99597.34;4439376;32;34657;-78
2022/09/23 03:09:56;;;;;;;2.65;2.45;;;;;;;6.69;73.57;99595.13;4438590;32;35880;-78
2022/09/23 03:12:48;;;;;;;0.55;0.55;;;;;;;6.57;74.22;99603.63;4439691;32;34101;-78
2022/09/23 03:15:34;;;;;;;0.50;0.50;;;;;;;6.48;74.25;99592.28;4439522;32;34036;-77
2022/09/23 03:18:30;;;;;;;1.83;1.73;;;;;;;6.18;76.09;99598.91;4438410;32;33876;-78
2022/09/23 03:21:02;;;;;;;0.90;0.90;;;;;;;5.85;76.90;99598.47;4438353;32;35097;-77
2022/09/23 03:23:34;;;;;;;0.60;0.60;;;;;;;5.87;77.49;99604.53;4438292;32;34340;-78
2022/09/23 03:26:11;;;;;;;0.80;0.80;;;;;;;6.30;76.84;99608.50;4438328;32;34383;-78
2022/09/23 03:28:42;;;;;;;0.70;0.70;;;;;;;6.66;74.07;99602.84;4438761;32;34781;-77
2022/09/23 03:31:11;;;;;;;0.65;0.65;;;;;;;6.50;73.93;99601.81;4438355;32;34927;-77
2022/09/23 03:33:44;;;;;;;1.40;1.30;;;;;;;5.89;76.50;99608.03;4438138;32;34301;-77
2022/09/23 03:39:06;;;;;;;0.60;0.60;;;;;;;6.35;76.13;99602.53;4438589;32;33840;-83
2022/09/23 03:41:44;;;;;;;0.70;0.70;;;;;;;5.97;78.24;99596.94;4438274;32;35872;-76
2022/09/23 03:44:11;;;;;;;0.50;0.50;;;;;;;5.99;78.07;99603.84;4439358;32;34329;-78
2022/09/23 03:46:42;;;;;;;0.50;0.50;;;;;;;6.48;76.00;99593.19;4438075;32;33590;-78
2022/09/23 03:49:23;;;;;;;0.70;0.70;;;;;;;6.51;75.74;99598.41;4438157;32;33358;-78
2022/09/23 03:51:51;;;;;;;0.60;0.60;;;;;;;6.04;78.87;99609.09;4438166;32;36000;-78
2022/09/23 03:54:19;;;;;;;0.60;0.60;;;;;;;6.66;76.34;99596.81;4439251;32;35250;-78
2022/09/23 03:56:46;;;;;;;0.70;0.70;;;;;;;6.32;77.31;99599.91;4439258;32;33431;-78
2022/09/23 03:59:15;;;;;;;0.68;0.68;;;;;;;6.00;79.23;99602.13;4439224;32;33708;-78
2022/09/23 04:01:44;;;;;;;0.60;0.60;;;;;;;6.02;78.41;99605.63;4439148;32;35141;-78
2022/09/23 04:04:12;;;;;;;0.50;0.50;;;;;;;6.74;75.43;99602.91;4447242;32;34517;-78
2022/09/23 04:06:40;;;;;;;0.50;0.50;;;;;;;5.94;78.28;99602.91;4454918;32;33317;-78
2022/09/23 04:09:08;;;;;;;0.52;0.52;;;;;;;6.40;77.78;99600.00;4454542;32;33888;-79
2022/09/23 04:11:36;;;;;;;0.77;0.77;;;;;;;7.00;74.23;99605.72;4453469;32;35077;-78
2022/09/23 04:14:04;;;;;;;0.50;0.50;;;;;;;7.01;73.78;99605.72;4453402;32;35181;-78
2022/09/23 04:16:32;;;;;;;0.50;0.50;;;;;;;7.00;73.75;99603.97;4452917;32;33609;-78
2022/09/23 04:19:00;;;;;;;0.60;0.60;;;;;;;6.93;73.63;99606.53;4452730;32;33520;-79
2022/09/23 04:21:29;;;;;;;0.60;0.60;;;;;;;6.88;73.69;99606.47;4453221;32;34323;-80
2022/09/23 04:23:57;;;;;;;0.60;0.60;;;;;;;6.75;74.81;99602.06;4454439;32;34984;-78
2022/09/23 04:26:25;;;;;;;0.77;0.77;;;;;;;6.52;75.81;99602.69;4453132;32;34084;-78
2022/09/23 04:28:53;;;;;;;0.93;0.93;;;;;;;6.80;74.82;99602.97;4452758;32;33773;-78
2022/09/23 04:31:22;;;;;;;0.77;0.77;;;;;;;6.46;74.98;99600.06;4453170;32;34995;-83
2022/09/23 04:33:53;;;;;;;0.60;0.60;;;;;;;6.61;75.07;99605.37;4454219;32;34427;-78
2022/09/23 04:36:21;;;;;;;0.50;0.50;;;;;;;6.38;75.67;99606.88;4448417;32;33292;-78
2022/09/23 04:38:49;;;;;;;1.00;0.93;;;;;;;6.20;78.46;99607.53;4439629;32;32218;-77
2022/09/23 04:41:18;;;;;;;0.60;0.60;;;;;;;6.76;74.78;99608.94;4454205;32;35759;-77
2022/09/23 04:43:46;;;;;;;0.52;0.52;;;;;;;6.74;74.57;99615.84;4445583;32;275757;-76
2022/09/23 04:46:15;;;;;;;0.50;0.50;;;;;;;6.28;77.72;99615.38;4451284;32;34291;-75
2022/09/23 04:48:43;;;;;;;0.68;0.68;;;;;;;6.66;75.70;99615.78;4450331;32;34009;-77
2022/09/23 04:51:14;;;;;;;0.50;0.50;;;;;;;6.61;75.13;99628.66;4453623;32;36612;-77
2022/09/23 04:53:43;;;;;;;0.50;0.50;;;;;;;6.32;76.92;99622.31;4452543;32;34503;-77
2022/09/23 04:56:17;;;;;;;0.55;0.55;;;;;;;6.22;78.07;99618.78;4452974;32;33479;-77
2022/09/23 04:58:45;;;;;;;0.55;0.55;;;;;;;6.12;78.49;99619.50;4453750;32;33987;-77
2022/09/23 05:01:18;;;;;;;0.70;0.70;;;;;;;6.15;81.11;99620.41;4452499;32;35183;-78
2022/09/23 05:03:47;;;;;;;0.50;0.50;;;;;;;6.40;80.59;99623.28;4439903;32;33659;-77
2022/09/23 05:06:15;;;;;;;0.70;0.70;;;;;;;7.03;75.93;99629.03;4452855;32;33801;-77
2022/09/23 05:08:50;;;;;;;0.50;0.50;;;;;;;6.73;76.84;99629.66;4452702;32;33773;-77
2022/09/23 05:11:19;;;;;;;0.50;0.50;;;;;;;6.89;76.58;99628.06;4453864;32;35135;-77
2022/09/23 05:13:48;;;;;;;0.50;0.50;;;;;;;7.02;77.24;99635.97;4452956;32;34946;-78
2022/09/23 05:16:16;;;;;;;0.60;0.60;;;;;;;7.17;77.34;99642.09;4452610;32;33500;-79
2022/09/23 05:18:45;;;;;;;0.90;0.90;;;;;;;7.17;79.30;99640.38;4452523;32;33989;-79
2022/09/23 05:21:15;;;;;;;0.50;0.50;;;;;;;7.57;78.16;99642.37;4452504;32;35211;-78
2022/09/23 05:23:49;;;;;;;0.77;0.77;;;;;;;8.10;77.17;99641.81;4453603;32;33987;-79
2022/09/23 05:26:17;;;;;;;0.57;0.57;;;;;;;8.46;76.78;99635.03;4453941;32;34238;-79
2022/09/23 05:28:44;;;;;;;1.58;1.48;;;;;;;9.03;74.66;99637.69;4454206;32;33828;-79
2022/09/23 05:31:17;;;;;;;0.98;0.98;;;;;;;9.27;74.20;99642.03;4454540;32;35840;-79
2022/09/23 05:33:52;;;;;;;0.50;0.50;;;;;;;9.32;74.04;99643.75;4454660;32;35118;-80
2022/09/23 05:36:21;;;;;;;0.50;0.50;;;;;;;9.92;72.50;99647.12;4454553;32;34145;-79
2022/09/23 05:38:50;;;;;;;1.10;0.85;;;;;;;10.29;70.89;99644.38;4454550;32;33898;-80
2022/09/23 05:41:21;;;;;;;0.50;0.50;;;;;;;10.03;72.32;99647.94;4455597;32;35012;-80
2022/09/23 05:43:50;;;;;;;0.40;0.40;;;;;;;10.34;70.62;99647.84;4455682;32;34944;-80
2022/09/23 05:46:22;;;;;;;0.70;0.70;;;;;;;11.36;67.12;99652.34;4441679;32;32319;-80
2022/09/23 05:48:50;;;;;;;0.85;0.85;;;;;;;11.27;69.33;99650.69;4454648;32;34869;-80
2022/09/23 05:51:20;;;;;;;0.43;0.43;;;;;;;10.96;72.09;99643.13;4454528;32;35108;-80
2022/09/23 05:53:51;;;;;;;0.55;0.55;;;;;;;11.00;72.85;99647.44;4455669;32;35940;-80
2022/09/23 05:56:21;;;;;;;0.45;0.45;;;;;;;11.72;70.47;99645.06;4455644;32;34455;-80
2022/09/23 05:58:50;;;;;;;1.48;1.37;;;;;;;11.95;69.39;99637.88;4454446;32;34043;-80
2022/09/23 06:01:20;;;;;;;0.60;0.60;;;;;;;12.37;67.64;99634.75;4454377;32;35992;-80
2022/09/23 06:03:56;;;;;;;1.17;1.08;;;;;;;12.57;67.59;99642.31;4454434;32;34514;-80
2022/09/23 06:06:35;;;;;;;0.37;0.37;;;;;;;12.70;67.26;99638.62;4454445;32;33330;-80
2022/09/23 06:09:05;;;;;;;1.33;1.30;;;;;;;12.91;66.79;99641.81;4441753;32;34084;-80
2022/09/23 06:11:34;;;;;;;0.32;0.32;;;;;;;13.58;64.93;99649.44;4455497;32;35993;-80
2022/09/23 06:14:02;;;;;;;0.77;0.77;;;;;;;13.58;66.23;99644.22;4454341;32;34441;-80
2022/09/23 06:16:32;;;;;;;0.50;0.50;;;;;;;13.89;64.13;99648.84;4454531;32;33440;-81
2022/09/23 06:19:04;;;;;;;0.37;0.37;;;;;;;14.05;62.92;99655.53;4454251;32;33909;-81
2022/09/23 06:21:35;;;;;;;0.77;0.77;;;;;;;15.06;60.48;99651.63;4441986;32;35064;-80
2022/09/23 06:24:05;;;;;;;1.35;1.30;;;;;;;15.25;59.66;99646.78;4455363;32;33768;-81
2022/09/23 06:26:33;;;;;;;0.40;0.40;;;;;;;14.65;61.80;99650.81;4454203;32;34242;-81
2022/09/23 06:29:07;;;;;;;0.40;0.40;;;;;;;14.69;62.98;99649.84;4441769;32;34914;-81
2022/09/23 06:31:35;;;;;;;0.47;0.47;;;;;;;15.58;58.25;99650.28;4454231;32;35965;-79
2022/09/23 06:34:03;;;;;;;0.68;0.68;;;;;;;15.16;61.16;99650.50;4455368;32;34534;-80
2022/09/23 06:36:40;;;;;;;0.25;0.25;;;;;;;15.28;61.12;99652.81;4455327;32;33544;-80
2022/09/23 06:39:15;;;;;;;0.73;0.73;;;;;;;15.66;58.20;99647.47;4454249;32;34028;-80
2022/09/23 06:41:44;;;;;;;0.40;0.40;;;;;;;16.34;56.16;99646.50;4453561;32;35175;-81
2022/09/23 06:44:13;;;;;;;0.85;0.82;;;;;;;16.11;56.03;99655.91;4454274;32;35314;-79
2022/09/23 06:46:41;;;;;;;0.55;0.55;;;;;;;15.48;60.35;99660.19;4454183;32;34314;-79
2022/09/23 06:49:09;;;;;;;0.37;0.37;;;;;;;15.90;60.06;99664.34;4455202;32;33380;-80
2022/09/23 06:51:39;;;;;;;0.60;0.60;;;;;;;16.18;57.12;99655.69;4455314;32;34947;-80
2022/09/23 06:54:07;;;;;;;0.40;0.40;;;;;;;16.49;56.36;99656.53;4455233;32;34445;-80
2022/09/23 06:56:35;;;;;;;1.17;0.95;;;;;;;15.79;58.23;99664.63;4455111;32;33352;-80
2022/09/23 06:59:09;;;;;;;3.42;2.20;;;;;;;15.58;60.06;99658.16;4455216;32;34045;-80
2022/09/23 07:01:37;;;;;;;0.70;0.70;;;;;;;15.52;60.73;99660.97;4453984;32;36117;-80
2022/09/23 07:04:06;;;;;;;0.37;0.37;;;;;;;16.04;58.11;99659.59;4455136;32;34491;-80
2022/09/23 07:06:34;;;;;;;0.40;0.40;;;;;;;16.40;58.82;99648.91;4455113;32;33434;-80
2022/09/23 07:09:04;;;;;;;0.50;0.50;;;;;;;16.46;57.54;99650.50;4441281;32;33046;-80
2022/09/23 07:11:32;;;;;;;0.45;0.45;;;;;;;17.28;53.33;99650.59;4453963;32;35165;-80
2022/09/23 07:14:00;;;;;;;0.82;0.82;;;;;;;15.91;57.84;99653.81;4455089;32;35259;-80
2022/09/23 07:16:28;;;;;;;0.50;0.50;;;;;;;17.85;51.99;99657.41;4455054;32;33461;-80
2022/09/23 07:18:56;;;;;;;0.37;0.37;;;;;;;16.95;53.05;99656.06;4455098;32;33801;-80
2022/09/23 07:21:24;;;;;;;0.40;0.40;;;;;;;17.77;52.28;99664.72;4454897;32;35009;-80
2022/09/23 07:23:54;;;;;;;0.98;0.98;;;;;;;18.55;50.35;99663.69;4454965;32;34453;-80
2022/09/23 07:26:22;;;;;;;0.73;0.73;;;;;;;18.15;49.08;99667.78;4453858;32;33549;-80
2022/09/23 07:28:54;;;;;;;1.80;1.70;;;;;;;18.57;51.09;99672.38;4454978;32;33978;-81
2022/09/23 07:31:22;;;;;;;1.15;0.50;;;;;;;18.36;49.15;99671.41;4453869;32;34879;-81
2022/09/23 07:34:06;;;;;;;0.32;0.32;;;;;;;19.00;48.08;99670.72;4454899;32;34336;-80
2022/09/23 07:36:36;;;;;;;0.32;0.32;;;;;;;18.29;48.34;99672.56;4454789;32;33645;-80
2022/09/23 07:39:04;;;;;;;1.40;0.77;;;;;;;18.57;48.08;99672.38;4454985;32;34803;-80
2022/09/23 07:41:33;;;;;;;0.50;0.50;;;;;;;18.24;49.45;99666.59;4453748;32;35161;-80
2022/09/23 07:44:02;;;;;;;0.30;0.30;;;;;;;19.34;48.65;99664.06;4453634;32;34500;-80
2022/09/23 07:46:32;;;;;;;0.52;0.52;;;;;;;17.56;49.67;99672.47;4453667;32;33295;-80
2022/09/23 07:49:01;;;;;;;1.00;0.95;;;;;;;18.47;52.08;99666.59;4454963;32;33268;-80
2022/09/23 07:51:32;;;;;;;1.37;0.70;;;;;;;18.71;48.74;99667.44;4453106;32;35919;-80
2022/09/23 07:54:06;;;;;;;0.45;0.45;;;;;;;20.05;45.61;99661.91;4454342;32;35352;-79
2022/09/23 07:56:35;;;;;;;0.52;0.52;;;;;;;20.17;46.07;99665.81;4451981;32;33461;-80
2022/09/23 07:59:07;;;;;;;1.02;0.60;;;;;;;20.07;45.27;99662.69;4453530;32;34760;-79
2022/09/23 08:01:38;;;;;;;1.27;1.15;;;;;;;20.46;42.97;99660.97;4453395;32;35154;-80
2022/09/23 08:04:11;;;;;;;0.62;0.62;;;;;;;20.42;46.72;99667.31;4453431;32;35195;-79
2022/09/23 08:06:47;;;;;;;1.33;1.23;;;;;;;19.06;47.97;99665.22;4453461;32;32761;-79
2022/09/23 08:09:17;;;;;;;0.60;0.60;;;;;;;20.00;46.19;99671.84;4453614;32;33920;-78
2022/09/23 08:11:45;;;;;;;0.50;0.50;;;;;;;20.52;44.22;99663.31;4453456;32;35964;-79
2022/09/23 08:14:14;;;;;;;1.12;0.93;;;;;;;20.06;46.87;99663.59;4454586;32;35173;-79
2022/09/23 08:16:44;;;;;;;1.17;0.95;;;;;;;20.71;42.67;99665.13;4454534;32;33556;-78
2022/09/23 08:19:12;;;;;;;0.93;0.93;;;;;;;19.66;43.92;99672.44;4453459;32;33882;-78
2022/09/23 08:21:41;;;;;;;2.92;1.15;;;;;;;19.20;46.84;99669.03;4453434;32;35053;-79
2022/09/23 08:24:13;;;;;;;0.82;0.80;;;;;;;20.82;43.76;99668.13;4454515;32;34556;-81
2022/09/23 08:26:42;;;;;;;0.40;0.40;;;;;;;21.04;45.38;99672.41;4453325;32;34206;-80
2022/09/23 08:29:17;;;;;;;0.30;0.30;;;;;;;20.98;44.56;99665.59;4454502;32;34048;-79
2022/09/23 08:31:45;;;;;;;1.80;1.27;;;;;;;20.08;47.21;99663.53;4453404;32;35877;-80
2022/09/23 08:34:14;;;;;;;0.85;0.85;;;;;;;21.38;42.37;99667.13;4454406;32;35064;-81
2022/09/23 08:36:42;;;;;;;0.62;0.60;;;;;;;21.84;42.98;99663.94;4454375;32;33495;-79
2022/09/23 08:39:16;;;;;;;1.30;1.25;;;;;;;19.94;44.06;99647.44;4453191;32;33387;-81
2022/09/23 08:42:02;;;;;;;1.73;1.62;;;;;;;20.67;41.86;99653.00;4453185;32;34312;-79
2022/09/23 08:44:36;;;;;;;0.60;0.60;;;;;;;20.83;43.85;99656.59;4454475;32;34339;-79
2022/09/23 08:47:42;;;;;;;0.30;0.30;;;;;;;20.02;45.16;99655.91;4454106;32;33827;-79
2022/09/23 08:50:17;;;;;;;0.62;0.62;;;;;;;18.37;46.94;99660.81;4452885;32;34141;-79
2022/09/23 08:52:55;;;;;;;1.23;0.70;;;;;;;19.77;47.00;99657.00;4453133;32;35013;-80
2022/09/23 08:55:33;;;;;;;0.50;0.50;;;;;;;22.00;43.13;99658.69;4454234;32;35201;-80
2022/09/23 08:58:30;;;;;;;0.52;0.52;;;;;;;21.23;42.00;99665.25;4453107;32;33473;-79
2022/09/23 09:01:14;;;;;;;0.37;0.37;;;;;;;20.10;45.04;99659.06;4454039;32;34597;-80
2022/09/23 09:04:04;;;;;;;1.45;1.35;;;;;;;19.58;45.71;99656.88;4454728;32;34836;-81
2022/09/23 09:06:41;;;;;;;0.57;0.50;;;;;;;19.73;45.99;99665.94;4455971;32;34310;-80
2022/09/23 09:09:51;;;;;;;1.10;1.00;;;;;;;19.67;45.84;99660.91;4456065;32;33479;-80
2022/09/23 09:12:25;;;;;;;1.50;1.40;;;;;;;22.00;43.63;99658.69;4455894;32;33906;-80
2022/09/23 09:14:56;;;;;;;1.80;1.70;;;;;;;22.41;39.58;99658.28;4455933;32;35987;-80
2022/09/23 09:17:49;;;;;;;2.05;1.85;;;;;;;21.38;42.56;99656.53;4455724;32;34107;-80
2022/09/23 09:20:22;;;;;;;0.25;0.25;;;;;;;21.06;45.37;99654.62;4455882;32;33546;-80
2022/09/23 09:22:56;;;;;;;1.37;0.90;;;;;;;21.35;42.90;99659.34;4454752;32;33901;-80
2022/09/23 09:25:43;;;;;;;0.30;0.30;;;;;;;19.69;45.81;99656.41;4454732;32;35000;-81
2022/09/23 09:28:34;;;;;;;0.73;0.73;;;;;;;20.64;44.30;99653.97;4454810;32;34638;-79
2022/09/23 09:31:27;;;;;;;0.52;0.52;;;;;;;19.74;46.37;99659.75;4454719;32;33438;-80
2022/09/23 09:34:32;;;;;;;0.80;0.80;;;;;;;22.26;42.44;99652.00;4455799;32;34791;-80
2022/09/23 09:37:06;;;;;;;1.25;1.15;;;;;;;22.27;41.37;99650.22;4454469;32;35719;-81
2022/09/23 09:39:35;;;;;;;1.50;1.05;;;;;;;22.32;38.83;99649.06;4454610;32;35308;-80
2022/09/23 09:42:06;;;;;;;1.02;1.02;;;;;;;21.39;43.09;99641.50;4454610;32;34222;-80
2022/09/23 09:44:49;;;;;;;1.08;1.08;;;;;;;20.72;43.55;99640.38;4454580;32;33335;-81
2022/09/23 09:47:45;;;;;;;2.70;1.62;;;;;;;22.55;40.65;99632.81;4454360;32;35137;-80
2022/09/23 09:50:20;;;;;;;0.82;0.77;;;;;;;22.69;39.06;99635.53;4455740;32;34639;-80
2022/09/23 09:52:50;;;;;;;2.08;1.80;;;;;;;23.43;39.98;99626.00;4454597;32;33457;-80
2022/09/23 09:55:27;;;;;;;0.85;0.85;;;;;;;22.43;39.32;99624.59;4455643;32;33944;-79
2022/09/23 09:58:03;;;;;;;0.30;0.20;;;;;;;22.22;39.42;99636.31;4455616;32;34940;-81
2022/09/23 10:00:37;;;;;;;0.52;0.52;;;;;;;22.59;37.72;99629.91;4454497;32;34421;-80
2022/09/23 10:03:32;;;;;;;1.00;0.57;;;;;;;24.02;35.42;99626.87;4454511;32;34269;-80
2022/09/23 10:06:16;;;;;;;1.25;1.15;;;;;;;22.20;39.44;99622.28;4454418;32;34970;-80
2022/09/23 10:09:07;;;;;;;0.40;0.40;;;;;;;22.22;37.57;99617.75;4455612;32;35297;-80
2022/09/23 10:11:37;;;;;;;0.60;0.60;;;;;;;22.81;37.58;99624.22;4455625;32;34531;-80
2022/09/23 10:14:16;;;;;;;0.82;0.82;;;;;;;23.45;36.72;99624.09;4454444;32;33724;-79
2022/09/23 10:16:47;;;;;;;0.75;0.75;;;;;;;22.73;40.54;99626.47;4453607;32;34863;-80
2022/09/23 10:19:25;;;;;;;0.40;0.40;;;;;;;21.63;38.15;99615.56;4455447;32;35839;-81
2022/09/23 10:21:59;;;;;;;0.47;0.47;;;;;;;21.75;39.08;99622.88;4454336;32;34533;-80
2022/09/23 10:24:29;;;;;;;1.50;1.20;;;;;;;20.84;39.93;99618.59;4455541;32;33583;-80
2022/09/23 10:27:08;;;;;;;0.40;0.40;;;;;;;21.23;39.29;99619.34;4455473;32;33058;-79
2022/09/23 10:29:49;;;;;;;0.77;0.77;;;;;;;21.14;38.49;99618.03;4441798;32;35039;-80
2022/09/23 10:32:29;;;;;;;1.23;1.17;;;;;;;21.70;41.24;99627.56;4454328;32;35201;-80
2022/09/23 10:35:00;;;;;;;0.75;0.70;;;;;;;22.38;41.64;99621.34;4455450;32;33612;-80
2022/09/23 10:37:43;;;;;;;0.50;0.50;;;;;;;20.22;41.92;99625.91;4455186;32;33973;-81
2022/09/23 10:49:44;;;;;;;0.43;0.43;;;;;;;19.60;45.45;99612.75;4455232;32;33958;-80
2022/09/23 10:52:22;;;;;;;0.73;0.65;;;;;;;21.23;39.26;99608.75;4441381;32;33692;-81
2022/09/23 10:55:27;;;;;;;1.27;1.17;;;;;;;20.42;39.77;99617.91;4454179;32;32901;-81
2022/09/23 10:58:23;;;;;;;0.45;0.43;;;;;;;20.73;39.56;99620.94;4454077;32;34316;-80
2022/09/23 11:01:04;;;;;;;0.73;0.73;;;;;;;19.22;44.08;99612.63;4446518;32;33957;-79
2022/09/23 11:04:15;;;;;;;0.47;0.40;;;;;;;18.46;48.38;99617.41;4455209;32;35201;-80
2022/09/23 11:06:49;;;;;;;2.97;2.22;;;;;;;19.48;43.64;99619.47;4447540;32;35242;-80
2022/09/23 11:09:39;;;;;;;1.95;1.20;;;;;;;19.89;43.43;99614.16;4454025;32;33623;-81
2022/09/23 11:12:13;;;;;;;0.60;0.60;;;;;;;19.49;47.09;99609.75;4441613;32;33318;-80
2022/09/23 11:15:06;;;;;;;0.55;0.55;;;;;;;19.83;46.40;99603.84;4455144;32;35910;-81
2022/09/23 11:18:01;;;;;;;1.17;1.02;;;;;;;20.73;40.87;99597.97;4454972;32;34468;-79
2022/09/23 11:20:39;;;;;;;0.90;0.90;;;;;;;20.39;43.53;99596.91;4453951;32;33352;-81
2022/09/23 11:23:26;;;;;;;1.08;1.08;;;;;;;21.14;42.02;99588.91;4455181;32;34662;-80
2022/09/23 11:26:21;;;;;;;0.90;0.90;;;;;;;20.67;42.66;99592.13;4454873;32;35912;-80
2022/09/23 11:29:15;;;;;;;1.25;1.15;;;;;;;21.28;41.94;99586.41;4454992;32;34635;-79
2022/09/23 11:32:26;;;;;;;0.70;0.70;;;;;;;21.28;39.93;99586.41;4453856;32;33332;-80
2022/09/23 11:35:19;;;;;;;1.15;1.08;;;;;;;21.53;40.53;99582.53;4454951;32;32921;-80
2022/09/23 11:37:51;;;;;;;0.60;0.60;;;;;;;21.13;40.24;99571.31;4453716;32;35111;-80
2022/09/23 11:40:28;;;;;;;0.60;0.60;;;;;;;21.19;39.65;99573.63;4454949;32;34301;-80
2022/09/23 11:43:22;;;;;;;0.50;0.50;;;;;;;22.80;37.16;99566.78;4454924;32;34174;-80
2022/09/23 11:45:59;;;;;;;0.77;0.60;;;;;;;22.27;37.07;99565.34;4441331;32;33071;-81
2022/09/23 11:48:34;;;;;;;4.20;0.98;;;;;;;22.48;40.50;99561.50;4453404;32;35278;-80
2022/09/23 11:51:05;;;;;;;0.80;0.80;;;;;;;21.59;40.26;99561.03;4454876;32;34480;-79
2022/09/23 11:53:42;;;;;;;9.10;1.02;;;;;;;22.87;33.94;99560.16;4453824;32;33321;-81
2022/09/23 11:56:48;;;;;;;0.47;0.47;;;;;;;22.55;34.33;99558.50;4454805;32;34017;-81
2022/09/23 11:59:46;;;;;;;0.20;0.20;;;;;;;22.25;36.01;99556.59;4420932;32;35244;-80
2022/09/23 12:02:22;;;;;;;0.40;0.40;;;;;;;20.96;39.06;99557.13;4453604;32;34435;-80
2022/09/23 12:05:07;;;;;;;0.82;0.80;;;;;;;21.76;41.27;99554.84;4454778;32;33501;-80
2022/09/23 12:08:02;;;;;;;0.68;0.68;;;;;;;22.05;33.60;99552.37;4455024;32;33776;-81
2022/09/23 12:10:45;;;;;;;0.40;0.40;;;;;;;22.20;35.00;99548.91;4453571;32;35001;-79
2022/09/23 12:13:20;;;;;;;3.40;0.77;;;;;;;22.00;38.41;99552.63;4453608;32;35133;-79
2022/09/23 12:15:51;;;;;;;0.40;0.40;;;;;;;22.03;39.38;99541.88;4453425;32;33431;-80
2022/09/23 12:18:24;;;;;;;0.28;0.28;;;;;;;21.69;38.00;99541.03;4454477;32;34655;-80
2022/09/23 12:21:01;;;;;;;0.50;0.50;;;;;;;22.32;32.53;99536.75;4454483;32;35734;-80
2022/09/23 12:23:50;;;;;;;0.98;0.95;;;;;;;20.73;34.79;99538.88;4454596;32;34544;-80
2022/09/23 12:26:21;;;;;;;0.40;0.40;;;;;;;21.91;33.94;99538.06;4454484;32;33417;-80
2022/09/23 12:28:51;;;;;;;0.57;0.57;;;;;;;21.57;34.49;99539.91;4454586;32;33114;-81
2022/09/23 12:31:29;;;;;;;1.02;0.60;;;;;;;20.79;36.64;99528.00;4453394;32;35060;-81